This is the latest recevied weather packets stored in our database for station/object NK0Z-13. If no packets are shown the sender has not sent any weather packets the latest 10 day(s).
| Time | Temp. | Humidity | Pressure | Rain* | Wind** | Luminosity | Snow |
|---|---|---|---|---|---|---|---|
| 1777933559 | 29.44° C | 30% | 1003.1 hPa | 0 mm | - | 515 W/m² | - |
| 1777932953 | 29.44° C | 31% | 1003.2 hPa | 0 mm | - | 360 W/m² | - |
| 1777932352 | 28.89° C | 31% | 1003.2 hPa | 0 mm | - | 265 W/m² | - |
| 1777931752 | 28.89° C | 30% | 1003.3 hPa | 0 mm | - | 408 W/m² | - |
| 1777931150 | 28.89° C | 31% | 1003.5 hPa | 0 mm | - | 298 W/m² | - |
| 1777930550 | 30.56° C | 29% | 1003.4 hPa | 0 mm | - | 754 W/m² | - |
| 1777929948 | 30° C | 30% | 1003.7 hPa | 0 mm | - | 717 W/m² | - |
| 1777929349 | 28.89° C | 32% | 1003.8 hPa | 0 mm | - | 655 W/m² | - |
| 1777928748 | 28.33° C | 32% | 1003.7 hPa | 0 mm | - | 227 W/m² | - |
| 1777928148 | 28.33° C | 32% | 1004 hPa | 0 mm | - | 395 W/m² | - |
| 1777927544 | 28.89° C | 33% | 1003.9 hPa | 0 mm | - | 367 W/m² | - |
| 1777926940 | 30° C | 29% | 1004.2 hPa | 0 mm | - | 645 W/m² | - |
| 1777926339 | 30° C | 29% | 1004.4 hPa | 0 mm | - | 881 W/m² | - |
| 1777925739 | 28.89° C | 30% | 1004.4 hPa | 0 mm | - | 400 W/m² | - |
| 1777925138 | 30° C | 29% | 1004.7 hPa | 0 mm | - | 379 W/m² | - |
| 1777924538 | 30° C | 30% | 1004.8 hPa | 0 mm | - | 775 W/m² | - |
| 1777923937 | 30° C | 30% | 1004.7 hPa | 0 mm | - | 812 W/m² | - |
| 1777923335 | 30° C | 27% | 1005 hPa | 0 mm | - | 815 W/m² | - |
| 1777922731 | 28.89° C | 27% | 1005 hPa | 0 mm | - | 669 W/m² | - |
| 1777922127 | 29.44° C | 29% | 1005.1 hPa | 0 mm | - | 784 W/m² | - |
| 1777921525 | 29.44° C | 29% | 1005.1 hPa | 0 mm | - | 866 W/m² | - |
| 1777920924 | 29.44° C | 28% | 1005.4 hPa | 0 mm | - | 891 W/m² | - |
| 1777920321 | 28.89° C | 30% | 1005.3 hPa | 0 mm | - | 915 W/m² | - |
| 1777919720 | 27.78° C | 33% | 1005.6 hPa | 0 mm | - | 763 W/m² | - |
| 1777919121 | 28.33° C | 32% | 1005.4 hPa | 0 mm | - | 785 W/m² | - |
* Rain latest hour (hover to see other rain measurements)
** Current wind speed in m/s (hover to see current wind gust speed)